Avenue, Maryland
Current Conditions -  °F | °C
As of 11:27 AM on Tuesday 21 Oct 2014 (Local Time) from K2W6 Reporting Station
Clear Clear  
Wind Chill: 64°   Ceiling: Unl
Heat Index: 64°   Visibility: 10mi
Dew Point: 46°   Wind: 5mph
Humidity: 52%   Direction: 280°W
Pressure: 29.88"   Gusts: NA
Location:  38.26°N, 76.77°W
Report Text: K2W6 211527Z AUTO 28004KT 10SM CLR 18/08 A2988 RMK AO1
Loading
Personal Weather Stations






























Interactive Weather Map New forecast layout! Learn more

10-Day Weather Forecast

Advertisements
Track Severe Weather on mobile